createdAt,value
2022-09-18T01:45:49.197Z,7.50
2022-09-18T01:50:58.723Z,7.60
2022-09-18T01:56:01.563Z,7.70
2022-09-18T02:01:04.309Z,7.70
2022-09-18T02:06:07.393Z,7.80
2022-09-18T02:11:10.109Z,7.80
2022-09-18T02:16:12.874Z,7.80
2022-09-18T02:21:15.596Z,7.90
2022-09-18T02:26:18.330Z,7.90
2022-09-18T02:31:21.088Z,7.90
2022-09-18T02:36:23.917Z,7.90
2022-09-18T02:41:26.603Z,7.90
2022-09-18T02:46:29.405Z,7.90
2022-09-18T02:51:32.116Z,7.90
2022-09-18T02:56:35.744Z,7.90
2022-09-18T03:01:38.705Z,8.00
2022-09-18T03:06:41.467Z,8.00
2022-09-18T03:11:44.407Z,8.00
2022-09-18T03:16:47.325Z,8.10
2022-09-18T03:21:51.252Z,8.10
2022-09-18T03:26:54.121Z,8.20
2022-09-18T03:31:56.997Z,8.20
2022-09-18T03:36:59.865Z,8.20
2022-09-18T03:42:06.524Z,8.20
2022-09-18T03:47:10.306Z,8.30
2022-09-18T03:52:13.094Z,8.30
2022-09-18T03:57:15.933Z,8.30
2022-09-18T04:02:18.764Z,8.20
2022-09-18T04:07:21.605Z,8.10
2022-09-18T04:12:24.363Z,8.10
2022-09-18T04:17:27.046Z,8.10
2022-09-18T04:22:29.743Z,8.20
2022-09-18T04:27:34.175Z,8.20
2022-09-18T04:32:36.883Z,8.20
2022-09-18T04:37:39.566Z,8.30
2022-09-18T04:42:42.544Z,8.30
2022-09-18T04:47:45.234Z,8.30
2022-09-18T04:52:55.768Z,8.40
2022-09-18T04:57:58.492Z,8.40
2022-09-18T05:03:01.238Z,8.30
2022-09-18T05:08:03.932Z,8.30
2022-09-18T05:13:07.045Z,8.40
2022-09-18T05:18:11.711Z,8.40
2022-09-18T05:23:15.155Z,8.40
2022-09-18T05:28:19.304Z,8.40
2022-09-18T05:33:22.025Z,8.40
2022-09-18T05:38:25.005Z,8.50
2022-09-18T05:43:28.000Z,8.50
2022-09-18T05:48:31.194Z,8.50
2022-09-18T05:53:33.931Z,8.50
2022-09-18T05:58:36.644Z,8.60
2022-09-18T06:03:39.409Z,8.60
2022-09-18T06:08:42.094Z,8.70
2022-09-18T06:13:48.973Z,8.70
2022-09-18T06:18:55.392Z,8.70
2022-09-18T06:23:58.093Z,8.80
2022-09-18T06:29:01.107Z,8.90
2022-09-18T06:34:03.906Z,8.90
2022-09-18T06:39:06.618Z,9.00
2022-09-18T06:44:09.299Z,9.00
2022-09-18T06:49:12.641Z,9.00
2022-09-18T06:54:15.437Z,9.20
2022-09-18T06:59:18.313Z,9.20
2022-09-18T07:04:20.961Z,9.20
2022-09-18T07:09:23.641Z,9.30
2022-09-18T07:14:26.340Z,9.30
2022-09-18T07:19:29.116Z,9.30
2022-09-18T07:24:31.761Z,9.30
2022-09-18T07:29:34.621Z,9.20
2022-09-18T07:34:38.510Z,9.20
2022-09-18T07:39:41.857Z,9.40
2022-09-18T07:44:44.533Z,9.20
2022-09-18T07:49:47.267Z,9.20
2022-09-18T07:54:49.956Z,9.20
2022-09-18T07:59:53.558Z,9.30
2022-09-18T08:04:56.359Z,9.30
2022-09-18T08:09:59.374Z,9.30
2022-09-18T08:15:02.105Z,9.40
2022-09-18T08:20:11.088Z,9.40
2022-09-18T08:25:13.909Z,9.70
2022-09-18T08:30:16.633Z,9.70
2022-09-18T08:35:19.493Z,9.60
2022-09-18T08:40:22.354Z,9.60
2022-09-18T08:45:25.904Z,9.80
2022-09-18T08:50:28.618Z,9.80
2022-09-18T08:55:33.450Z,9.80
2022-09-18T09:00:36.414Z,9.80
2022-09-18T09:05:39.258Z,9.80
2022-09-18T09:10:42.120Z,9.90
2022-09-18T09:15:45.560Z,10.10
2022-09-18T09:20:48.443Z,10.70
2022-09-18T09:25:51.271Z,10.80
2022-09-18T09:30:54.754Z,11.10
2022-09-18T09:35:57.528Z,11.30
2022-09-18T09:41:00.355Z,11.10
2022-09-18T09:46:03.059Z,10.90
2022-09-18T09:51:05.771Z,10.90
2022-09-18T09:56:08.443Z,10.90
2022-09-18T10:01:11.215Z,10.90
2022-09-18T10:06:13.947Z,11.00
2022-09-18T10:11:16.917Z,11.10
2022-09-18T10:16:19.647Z,11.10
2022-09-18T10:21:22.413Z,11.10
2022-09-18T10:26:25.074Z,11.10
2022-09-18T10:31:27.809Z,11.10
2022-09-18T10:36:31.270Z,11.30
2022-09-18T10:41:34.207Z,11.40
2022-09-18T10:46:37.070Z,11.70
2022-09-18T10:51:39.838Z,12.00
2022-09-18T10:56:42.937Z,12.00
2022-09-18T11:01:45.847Z,11.80
2022-09-18T11:06:48.713Z,11.60
2022-09-18T11:11:52.013Z,11.40
2022-09-18T11:16:54.788Z,11.20
2022-09-18T11:21:59.511Z,11.00
2022-09-18T11:27:02.328Z,11.00
2022-09-18T11:32:05.131Z,11.10
2022-09-18T11:37:08.170Z,11.40
2022-09-18T11:42:11.469Z,11.60
2022-09-18T11:47:14.896Z,11.70
2022-09-18T11:52:18.656Z,11.50
2022-09-18T11:57:21.394Z,12.30
2022-09-18T12:02:24.486Z,11.30
2022-09-18T12:07:37.923Z,11.30
2022-09-18T12:12:41.118Z,11.50
2022-09-18T12:17:54.095Z,12.20
2022-09-18T12:22:56.799Z,12.90
2022-09-18T12:27:59.460Z,13.00
2022-09-18T12:33:02.119Z,13.00
2022-09-18T12:38:04.810Z,12.70
2022-09-18T12:43:08.235Z,12.60
2022-09-18T12:48:10.946Z,12.40
2022-09-18T12:53:13.703Z,12.40
2022-09-18T12:58:16.549Z,12.60
2022-09-18T13:03:19.697Z,12.70
2022-09-18T13:08:22.443Z,12.50
2022-09-18T13:13:25.289Z,12.40
2022-09-18T13:18:29.315Z,12.10
2022-09-18T13:23:32.195Z,12.30
2022-09-18T13:28:35.116Z,12.70
2022-09-18T13:33:37.913Z,13.00
2022-09-18T13:38:46.341Z,13.10
2022-09-18T13:43:49.823Z,13.30
2022-09-18T13:48:56.696Z,13.60
2022-09-18T13:54:00.309Z,13.60
2022-09-18T13:59:06.067Z,13.70
2022-09-18T14:04:09.708Z,14.00
2022-09-18T14:09:12.445Z,14.00
2022-09-18T14:14:15.833Z,13.90
2022-09-18T14:19:18.640Z,13.80
2022-09-18T14:24:23.170Z,13.60
2022-09-18T14:29:25.962Z,13.50
2022-09-18T14:34:29.117Z,13.40
2022-09-18T14:39:31.767Z,13.40
2022-09-18T14:44:35.094Z,13.50
2022-09-18T14:49:37.769Z,13.50
2022-09-18T14:54:41.137Z,13.40
2022-09-18T14:59:44.023Z,13.30
2022-09-18T15:04:46.902Z,13.20
2022-09-18T15:09:50.139Z,13.20
2022-09-18T15:14:52.937Z,13.00
2022-09-18T15:19:55.918Z,12.90
2022-09-18T15:25:02.052Z,12.80
2022-09-18T15:30:12.424Z,12.80
2022-09-18T15:35:15.881Z,12.70
2022-09-18T15:40:19.070Z,12.70
2022-09-18T15:45:22.038Z,12.60
2022-09-18T15:50:26.612Z,12.50
2022-09-18T15:55:30.314Z,12.40
2022-09-18T16:00:33.104Z,12.30
2022-09-18T16:05:38.064Z,12.20
2022-09-18T16:10:41.772Z,12.10
2022-09-18T16:15:52.306Z,12.10
2022-09-18T16:21:02.768Z,12.00
2022-09-18T16:26:05.950Z,11.90
2022-09-18T16:31:08.769Z,11.90
2022-09-18T16:36:11.561Z,11.90
2022-09-18T16:41:14.272Z,11.80
2022-09-18T16:46:17.098Z,11.80
2022-09-18T16:51:19.846Z,11.70
2022-09-18T16:56:22.737Z,11.70
2022-09-18T17:01:25.471Z,11.60
2022-09-18T17:06:28.549Z,11.60
2022-09-18T17:11:31.349Z,11.50
2022-09-18T17:16:44.136Z,11.50
2022-09-18T17:21:47.684Z,11.60
2022-09-18T17:26:50.458Z,11.60
2022-09-18T17:31:53.303Z,11.50
2022-09-18T17:36:56.058Z,11.50
2022-09-18T17:41:59.654Z,11.50
2022-09-18T17:47:02.477Z,11.40
2022-09-18T17:52:05.497Z,11.40
2022-09-18T17:57:11.665Z,11.50
2022-09-18T18:02:15.472Z,11.40
2022-09-18T18:07:18.591Z,11.40
2022-09-18T18:12:21.481Z,11.40
2022-09-18T18:17:24.659Z,11.40
2022-09-18T18:22:27.461Z,11.40
2022-09-18T18:27:30.214Z,11.40
2022-09-18T18:32:34.892Z,11.30
2022-09-18T18:37:37.624Z,11.30
2022-09-18T18:42:41.448Z,11.30
2022-09-18T18:47:48.652Z,11.30
2022-09-18T18:52:53.419Z,11.20
2022-09-18T18:57:56.366Z,11.20
2022-09-18T19:03:02.476Z,11.10
2022-09-18T19:08:07.974Z,11.10
2022-09-18T19:13:10.819Z,11.10
2022-09-18T19:18:13.742Z,11.10
2022-09-18T19:23:16.840Z,11.00
2022-09-18T19:28:19.552Z,11.00
2022-09-18T19:33:23.092Z,11.00
2022-09-18T19:38:25.976Z,11.00
2022-09-18T19:43:28.758Z,10.90
2022-09-18T19:48:31.544Z,10.90
2022-09-18T19:53:34.388Z,10.80
2022-09-18T19:58:37.229Z,10.80
2022-09-18T20:03:39.990Z,10.80
2022-09-18T20:08:42.690Z,10.80
2022-09-18T20:13:45.488Z,10.80
2022-09-18T20:18:48.975Z,10.80
2022-09-18T20:23:51.784Z,10.80
2022-09-18T20:28:55.402Z,10.80
2022-09-18T20:33:58.120Z,10.90
2022-09-18T20:39:03.672Z,10.90
2022-09-18T20:44:06.434Z,10.90
2022-09-18T20:49:09.234Z,11.00
2022-09-18T20:54:12.055Z,11.00
2022-09-18T20:59:16.195Z,11.00
2022-09-18T21:04:19.500Z,11.10
2022-09-18T21:09:22.237Z,11.10
2022-09-18T21:14:25.619Z,11.20
2022-09-18T21:19:28.498Z,11.20
2022-09-18T21:24:32.319Z,11.10
2022-09-18T21:29:35.076Z,11.10
2022-09-18T21:34:37.738Z,11.10
2022-09-18T21:39:44.049Z,11.00
2022-09-18T21:44:46.712Z,10.70
2022-09-18T21:49:49.406Z,10.50
2022-09-18T21:54:52.438Z,10.30
2022-09-18T21:59:55.351Z,10.20
2022-09-18T22:04:58.020Z,10.10
2022-09-18T22:10:00.834Z,10.10
2022-09-18T22:20:10.877Z,9.40
2022-09-18T22:25:14.322Z,9.20
2022-09-18T22:30:17.018Z,9.10
2022-09-18T22:35:19.762Z,9.00
2022-09-18T22:40:22.680Z,9.00
2022-09-18T22:45:27.008Z,8.90
2022-09-18T22:50:29.905Z,8.90
2022-09-18T22:55:32.722Z,9.00
2022-09-18T23:00:35.415Z,9.00
2022-09-18T23:05:47.984Z,8.90
2022-09-18T23:10:50.830Z,8.90
2022-09-18T23:15:53.593Z,8.90
2022-09-18T23:20:56.430Z,8.90
2022-09-18T23:25:59.107Z,8.90
2022-09-18T23:31:01.831Z,8.90
2022-09-18T23:36:04.818Z,8.90
2022-09-18T23:41:07.638Z,8.90
2022-09-18T23:46:13.316Z,9.00
2022-09-18T23:51:16.168Z,9.00
2022-09-18T23:56:18.862Z,8.90
